sensor_id;sensor_type;location;lat;lon;timestamp;pressure;altitude;pressure_sealevel;temperature;humidity
62059;BME280;48017;51.064;7.014;2022-09-27T00:00:38;98841.38;;;9.73;100.00
62059;BME280;48017;51.064;7.014;2022-09-27T00:03:06;98848.31;;;9.74;100.00
62059;BME280;48017;51.064;7.014;2022-09-27T00:05:31;98846.03;;;9.71;100.00
62059;BME280;48017;51.064;7.014;2022-09-27T00:07:56;98856.59;;;9.71;100.00
62059;BME280;48017;51.064;7.014;2022-09-27T00:10:22;98853.78;;;9.72;100.00
62059;BME280;48017;51.064;7.014;2022-09-27T00:12:47;98852.63;;;9.75;100.00
62059;BME280;48017;51.064;7.014;2022-09-27T00:15:13;98857.91;;;9.75;100.00
62059;BME280;48017;51.064;7.014;2022-09-27T00:17:39;98864.38;;;9.72;100.00
62059;BME280;48017;51.064;7.014;2022-09-27T00:20:06;98865.84;;;9.67;100.00
62059;BME280;48017;51.064;7.014;2022-09-27T00:22:32;98873.97;;;9.65;100.00
62059;BME280;48017;51.064;7.014;2022-09-27T00:24:57;98882.38;;;9.69;100.00
62059;BME280;48017;51.064;7.014;2022-09-27T00:27:24;98881.72;;;9.59;100.00
62059;BME280;48017;51.064;7.014;2022-09-27T00:29:50;98880.41;;;9.55;100.00
62059;BME280;48017;51.064;7.014;2022-09-27T00:32:15;98886.03;;;9.60;100.00
62059;BME280;48017;51.064;7.014;2022-09-27T00:34:40;98889.19;;;9.55;100.00
62059;BME280;48017;51.064;7.014;2022-09-27T00:37:07;98888.00;;;9.58;100.00
62059;BME280;48017;51.064;7.014;2022-09-27T00:39:33;98889.66;;;9.59;100.00
62059;BME280;48017;51.064;7.014;2022-09-27T00:41:59;98899.41;;;9.58;100.00
62059;BME280;48017;51.064;7.014;2022-09-27T00:52:15;98903.22;;;9.56;100.00
62059;BME280;48017;51.064;7.014;2022-09-27T00:54:43;98902.41;;;9.63;100.00
62059;BME280;48017;51.064;7.014;2022-09-27T00:57:11;98899.75;;;9.55;100.00
62059;BME280;48017;51.064;7.014;2022-09-27T00:59:56;98896.75;;;9.50;100.00
62059;BME280;48017;51.064;7.014;2022-09-27T01:02:23;98900.94;;;9.52;100.00
62059;BME280;48017;51.064;7.014;2022-09-27T01:04:49;98894.28;;;9.57;100.00
62059;BME280;48017;51.064;7.014;2022-09-27T01:07:15;98899.75;;;9.55;100.00
62059;BME280;48017;51.064;7.014;2022-09-27T01:09:41;98900.75;;;9.54;100.00
62059;BME280;48017;51.064;7.014;2022-09-27T01:31:02;98913.47;;;9.42;100.00
62059;BME280;48017;51.064;7.014;2022-09-27T01:41:37;98914.47;;;9.41;100.00
62059;BME280;48017;51.064;7.014;2022-09-27T01:46:54;98908.84;;;9.44;100.00
62059;BME280;48017;51.064;7.014;2022-09-27T01:49:48;98922.06;;;9.36;100.00
62059;BME280;48017;51.064;7.014;2022-09-27T01:52:19;98907.53;;;9.40;100.00
62059;BME280;48017;51.064;7.014;2022-09-27T01:54:52;98919.25;;;9.38;100.00
62059;BME280;48017;51.064;7.014;2022-09-27T01:57:23;98921.41;;;9.42;100.00
62059;BME280;48017;51.064;7.014;2022-09-27T02:00:00;98919.44;;;9.44;100.00
62059;BME280;48017;51.064;7.014;2022-09-27T02:02:30;98919.06;;;9.39;100.00
62059;BME280;48017;51.064;7.014;2022-09-27T02:05:00;98921.41;;;9.42;100.00
62059;BME280;48017;51.064;7.014;2022-09-27T02:07:33;98924.69;;;9.36;100.00
62059;BME280;48017;51.064;7.014;2022-09-27T02:10:05;98923.38;;;9.32;100.00
62059;BME280;48017;51.064;7.014;2022-09-27T02:12:36;98916.75;;;9.36;100.00
62059;BME280;48017;51.064;7.014;2022-09-27T02:15:06;98919.09;;;9.31;100.00
62059;BME280;48017;51.064;7.014;2022-09-27T02:17:43;98926.03;;;9.40;100.00
62059;BME280;48017;51.064;7.014;2022-09-27T02:20:17;98929.31;;;9.34;100.00
62059;BME280;48017;51.064;7.014;2022-09-27T02:22:48;98923.38;;;9.32;100.00
62059;BME280;48017;51.064;7.014;2022-09-27T02:30:17;98936.09;;;9.29;100.00
62059;BME280;48017;51.064;7.014;2022-09-27T02:32:43;98942.06;;;9.31;100.00
62059;BME280;48017;51.064;7.014;2022-09-27T02:37:37;98939.25;;;9.32;100.00
62059;BME280;48017;51.064;7.014;2022-09-27T02:40:03;98942.19;;;9.29;100.00
62059;BME280;48017;51.064;7.014;2022-09-27T02:42:29;98937.56;;;9.23;100.00
62059;BME280;48017;51.064;7.014;2022-09-27T02:44:55;98937.91;;;9.28;100.00
62059;BME280;48017;51.064;7.014;2022-09-27T02:52:46;98949.50;;;9.35;100.00
62059;BME280;48017;51.064;7.014;2022-09-27T03:00:41;98949.81;;;9.24;100.00
62059;BME280;48017;51.064;7.014;2022-09-27T03:06:15;98955.41;;;9.21;100.00
62059;BME280;48017;51.064;7.014;2022-09-27T03:08:43;98958.06;;;9.21;100.00
62059;BME280;48017;51.064;7.014;2022-09-27T03:11:08;98963.34;;;9.21;100.00
62059;BME280;48017;51.064;7.014;2022-09-27T03:13:33;98964.34;;;9.20;100.00
62059;BME280;48017;51.064;7.014;2022-09-27T03:16:03;98966.13;;;9.19;100.00
62059;BME280;48017;51.064;7.014;2022-09-27T03:18:28;98972.28;;;9.20;100.00
62059;BME280;48017;51.064;7.014;2022-09-27T03:20:53;98969.47;;;9.21;100.00
62059;BME280;48017;51.064;7.014;2022-09-27T03:23:19;98974.59;;;9.23;100.00
62059;BME280;48017;51.064;7.014;2022-09-27T03:25:45;98977.25;;;9.23;100.00
62059;BME280;48017;51.064;7.014;2022-09-27T03:28:11;98980.88;;;9.22;100.00
62059;BME280;48017;51.064;7.014;2022-09-27T03:30:36;98980.22;;;9.20;100.00
62059;BME280;48017;51.064;7.014;2022-09-27T03:33:02;98985.34;;;9.21;100.00
62059;BME280;48017;51.064;7.014;2022-09-27T03:35:28;98988.28;;;9.18;100.00
62059;BME280;48017;51.064;7.014;2022-09-27T03:37:53;98983.00;;;9.18;100.00
62059;BME280;48017;51.064;7.014;2022-09-27T03:40:19;98983.28;;;9.07;100.00
62059;BME280;48017;51.064;7.014;2022-09-27T03:42:44;98985.13;;;9.15;100.00
62059;BME280;48017;51.064;7.014;2022-09-27T03:45:10;98990.91;;;9.18;100.00
62059;BME280;48017;51.064;7.014;2022-09-27T03:47:39;98986.75;;;9.08;100.00
62059;BME280;48017;51.064;7.014;2022-09-27T03:50:06;98991.03;;;9.01;100.00
62059;BME280;48017;51.064;7.014;2022-09-27T03:52:32;98975.63;;;8.96;100.00
62059;BME280;48017;51.064;7.014;2022-09-27T03:54:58;98992.19;;;9.06;100.00
62059;BME280;48017;51.064;7.014;2022-09-27T03:57:24;98986.88;;;8.98;100.00
62059;BME280;48017;51.064;7.014;2022-09-27T03:59:49;98991.69;;;9.03;100.00
62059;BME280;48017;51.064;7.014;2022-09-27T04:02:15;98986.75;;;9.08;100.00
62059;BME280;48017;51.064;7.014;2022-09-27T04:04:41;99003.44;;;9.00;100.00
62059;BME280;48017;51.064;7.014;2022-09-27T04:07:07;98994.69;;;9.00;100.00
62059;BME280;48017;51.064;7.014;2022-09-27T04:09:34;98994.97;;;8.97;100.00
62059;BME280;48017;51.064;7.014;2022-09-27T04:12:01;99003.34;;;8.84;100.00
62059;BME280;48017;51.064;7.014;2022-09-27T04:14:27;98998.84;;;8.76;100.00
62059;BME280;48017;51.064;7.014;2022-09-27T04:16:52;99001.31;;;8.78;100.00
62059;BME280;48017;51.064;7.014;2022-09-27T04:19:17;99004.78;;;8.78;100.00
62059;BME280;48017;51.064;7.014;2022-09-27T04:21:43;99008.56;;;8.76;100.00
62059;BME280;48017;51.064;7.014;2022-09-27T04:24:08;99007.69;;;8.67;100.00
62059;BME280;48017;51.064;7.014;2022-09-27T04:26:36;99010.34;;;8.67;100.00
62059;BME280;48017;51.064;7.014;2022-09-27T04:29:02;99013.88;;;8.76;100.00
62059;BME280;48017;51.064;7.014;2022-09-27T04:31:28;99008.41;;;8.69;100.00
62059;BME280;48017;51.064;7.014;2022-09-27T04:33:53;99003.72;;;8.63;100.00
62059;BME280;48017;51.064;7.014;2022-09-27T04:36:21;99012.00;;;8.68;100.00
62059;BME280;48017;51.064;7.014;2022-09-27T04:38:57;99014.50;;;8.70;100.00
62059;BME280;48017;51.064;7.014;2022-09-27T04:41:25;99017.16;;;8.70;100.00
62059;BME280;48017;51.064;7.014;2022-09-27T04:43:53;99011.66;;;8.63;100.00
62059;BME280;48017;51.064;7.014;2022-09-27T04:46:19;99020.78;;;8.69;100.00
62059;BME280;48017;51.064;7.014;2022-09-27T04:48:48;99014.63;;;8.60;100.00
62059;BME280;48017;51.064;7.014;2022-09-27T04:51:14;99011.91;;;8.52;100.00
62059;BME280;48017;51.064;7.014;2022-09-27T04:53:42;99020.56;;;8.62;100.00
62059;BME280;48017;51.064;7.014;2022-09-27T04:56:09;99029.88;;;8.48;100.00
62059;BME280;48017;51.064;7.014;2022-09-27T04:58:34;99028.22;;;8.47;100.00
62059;BME280;48017;51.064;7.014;2022-09-27T05:01:00;99025.63;;;8.55;100.00
62059;BME280;48017;51.064;7.014;2022-09-27T05:03:27;99023.63;;;8.49;100.00
62059;BME280;48017;51.064;7.014;2022-09-27T05:05:53;99028.06;;;8.49;100.00
62059;BME280;48017;51.064;7.014;2022-09-27T05:08:19;99029.63;;;8.59;100.00
62059;BME280;48017;51.064;7.014;2022-09-27T05:10:46;99041.63;;;8.54;100.00
62059;BME280;48017;51.064;7.014;2022-09-27T05:13:12;99045.88;;;8.47;100.00
62059;BME280;48017;51.064;7.014;2022-09-27T05:15:38;99049.22;;;8.49;100.00
62059;BME280;48017;51.064;7.014;2022-09-27T05:18:04;99045.47;;;8.59;100.00
62059;BME280;48017;51.064;7.014;2022-09-27T05:20:31;99052.81;;;8.48;100.00
62059;BME280;48017;51.064;7.014;2022-09-27T05:22:56;99047.53;;;8.48;100.00
62059;BME280;48017;51.064;7.014;2022-09-27T05:25:21;99052.97;;;8.46;100.00
62059;BME280;48017;51.064;7.014;2022-09-27T05:27:48;99054.00;;;8.53;100.00
62059;BME280;48017;51.064;7.014;2022-09-27T05:30:14;99055.09;;;8.43;100.00
62059;BME280;48017;51.064;7.014;2022-09-27T05:32:42;99057.06;;;8.41;100.00
62059;BME280;48017;51.064;7.014;2022-09-27T05:35:08;99058.72;;;8.42;100.00
62059;BME280;48017;51.064;7.014;2022-09-27T05:37:34;99065.66;;;8.43;100.00
62059;BME280;48017;51.064;7.014;2022-09-27T05:39:59;99062.84;;;8.44;100.00
62059;BME280;48017;51.064;7.014;2022-09-27T05:42:25;99073.66;;;8.51;100.00
62059;BME280;48017;51.064;7.014;2022-09-27T05:44:50;99080.75;;;8.50;100.00
62059;BME280;48017;51.064;7.014;2022-09-27T05:47:16;99088.50;;;8.52;100.00
62059;BME280;48017;51.064;7.014;2022-09-27T05:49:42;99087.84;;;8.50;100.00
62059;BME280;48017;51.064;7.014;2022-09-27T05:52:07;99091.00;;;8.53;100.00
62059;BME280;48017;51.064;7.014;2022-09-27T05:54:33;99094.03;;;8.58;100.00
62059;BME280;48017;51.064;7.014;2022-09-27T05:56:58;99097.34;;;8.60;100.00
62059;BME280;48017;51.064;7.014;2022-09-27T05:59:25;99093.16;;;8.58;100.00
62059;BME280;48017;51.064;7.014;2022-09-27T06:01:51;99104.47;;;8.68;100.00
62059;BME280;48017;51.064;7.014;2022-09-27T06:04:17;99094.59;;;8.70;100.00
62059;BME280;48017;51.064;7.014;2022-09-27T06:06:43;99096.94;;;8.55;100.00
62059;BME280;48017;51.064;7.014;2022-09-27T06:09:13;99095.81;;;8.58;100.00
62059;BME280;48017;51.064;7.014;2022-09-27T06:11:40;99090.53;;;8.58;100.00
62059;BME280;48017;51.064;7.014;2022-09-27T06:14:05;99091.06;;;8.61;100.00
62059;BME280;48017;51.064;7.014;2022-09-27T06:16:31;99088.25;;;8.63;100.00
62059;BME280;48017;51.064;7.014;2022-09-27T06:18:56;99081.69;;;8.67;100.00
62059;BME280;48017;51.064;7.014;2022-09-27T06:21:22;99095.69;;;8.59;100.00
62059;BME280;48017;51.064;7.014;2022-09-27T06:23:48;99092.22;;;8.59;100.00
62059;BME280;48017;51.064;7.014;2022-09-27T06:26:14;99094.38;;;8.63;100.00
62059;BME280;48017;51.064;7.014;2022-09-27T06:28:40;99100.81;;;8.61;100.00
62059;BME280;48017;51.064;7.014;2022-09-27T06:31:06;99101.94;;;8.58;100.00
62059;BME280;48017;51.064;7.014;2022-09-27T06:33:36;99104.44;;;8.60;100.00
62059;BME280;48017;51.064;7.014;2022-09-27T06:36:05;99100.16;;;8.67;100.00
62059;BME280;48017;51.064;7.014;2022-09-27T06:38:31;99100.56;;;8.72;100.00
62059;BME280;48017;51.064;7.014;2022-09-27T06:41:00;99100.78;;;8.79;100.00
62059;BME280;48017;51.064;7.014;2022-09-27T06:43:26;99105.59;;;8.83;100.00
62059;BME280;48017;51.064;7.014;2022-09-27T06:45:51;99103.03;;;8.74;100.00
62059;BME280;48017;51.064;7.014;2022-09-27T06:48:17;99114.13;;;8.77;100.00
62059;BME280;48017;51.064;7.014;2022-09-27T06:50:44;99108.16;;;8.75;100.00
62059;BME280;48017;51.064;7.014;2022-09-27T06:53:11;99117.59;;;8.78;100.00
62059;BME280;48017;51.064;7.014;2022-09-27T06:55:37;99121.22;;;8.77;100.00
62059;BME280;48017;51.064;7.014;2022-09-27T06:58:04;99114.69;;;8.63;100.00
62059;BME280;48017;51.064;7.014;2022-09-27T07:01:07;99122.59;;;8.63;100.00
62059;BME280;48017;51.064;7.014;2022-09-27T07:03:33;99126.91;;;8.64;100.00
62059;BME280;48017;51.064;7.014;2022-09-27T07:06:02;99128.66;;;8.55;100.00
62059;BME280;48017;51.064;7.014;2022-09-27T07:08:29;99133.75;;;8.75;100.00
62059;BME280;48017;51.064;7.014;2022-09-27T07:10:59;99139.03;;;8.75;100.00
62059;BME280;48017;51.064;7.014;2022-09-27T07:13:26;99143.72;;;8.81;100.00
62059;BME280;48017;51.064;7.014;2022-09-27T07:15:59;99140.63;;;8.68;100.00
62059;BME280;48017;51.064;7.014;2022-09-27T07:18:25;99149.09;;;8.71;100.00
62059;BME280;48017;51.064;7.014;2022-09-27T07:20:52;99162.38;;;8.79;100.00
62059;BME280;48017;51.064;7.014;2022-09-27T07:23:17;99151.19;;;8.68;100.00
62059;BME280;48017;51.064;7.014;2022-09-27T07:25:43;99163.59;;;8.67;100.00
62059;BME280;48017;51.064;7.014;2022-09-27T07:28:13;99162.59;;;8.68;100.00
62059;BME280;48017;51.064;7.014;2022-09-27T07:30:40;99179.81;;;8.54;100.00
62059;BME280;48017;51.064;7.014;2022-09-27T07:33:06;99168.66;;;8.60;100.00
62059;BME280;48017;51.064;7.014;2022-09-27T07:35:33;99159.09;;;8.59;100.00
62059;BME280;48017;51.064;7.014;2022-09-27T07:38:01;99167.91;;;8.50;100.00
62059;BME280;48017;51.064;7.014;2022-09-27T07:40:27;99167.28;;;8.56;100.00
62059;BME280;48017;51.064;7.014;2022-09-27T07:42:57;99166.94;;;8.51;100.00
62059;BME280;48017;51.064;7.014;2022-09-27T07:45:23;99175.75;;;8.60;100.00
62059;BME280;48017;51.064;7.014;2022-09-27T07:47:49;99170.16;;;8.45;100.00
62059;BME280;48017;51.064;7.014;2022-09-27T07:50:14;99176.00;;;8.49;100.00
62059;BME280;48017;51.064;7.014;2022-09-27T07:52:41;99179.31;;;8.51;100.00
62059;BME280;48017;51.064;7.014;2022-09-27T07:55:09;99179.91;;;8.45;100.00
62059;BME280;48017;51.064;7.014;2022-09-27T07:57:35;99175.28;;;8.47;100.00
62059;BME280;48017;51.064;7.014;2022-09-27T08:00:03;99177.69;;;8.58;100.00
62059;BME280;48017;51.064;7.014;2022-09-27T08:02:29;99182.06;;;8.67;100.00
62059;BME280;48017;51.064;7.014;2022-09-27T08:04:57;99184.72;;;8.67;100.00
62059;BME280;48017;51.064;7.014;2022-09-27T08:07:23;99196.50;;;8.55;100.00
62059;BME280;48017;51.064;7.014;2022-09-27T08:09:48;99196.06;;;8.59;100.00
62059;BME280;48017;51.064;7.014;2022-09-27T08:12:15;99200.28;;;8.70;100.00
62059;BME280;48017;51.064;7.014;2022-09-27T08:14:40;99204.19;;;8.66;100.00
62059;BME280;48017;51.064;7.014;2022-09-27T08:17:09;99201.72;;;8.64;100.00
62059;BME280;48017;51.064;7.014;2022-09-27T08:19:35;99205.63;;;8.78;100.00
62059;BME280;48017;51.064;7.014;2022-09-27T08:22:00;99201.63;;;8.74;100.00
62059;BME280;48017;51.064;7.014;2022-09-27T08:24:26;99202.69;;;8.81;100.00
62059;BME280;48017;51.064;7.014;2022-09-27T08:26:53;99204.78;;;8.95;100.00
62059;BME280;48017;51.064;7.014;2022-09-27T08:29:19;99210.22;;;8.94;100.00
62059;BME280;48017;51.064;7.014;2022-09-27T08:31:44;99207.59;;;8.94;100.00
62059;BME280;48017;51.064;7.014;2022-09-27T08:34:10;99208.47;;;9.03;100.00
62059;BME280;48017;51.064;7.014;2022-09-27T08:36:35;99210.81;;;9.06;100.00
62059;BME280;48017;51.064;7.014;2022-09-27T08:39:03;99214.94;;;9.08;100.00
62059;BME280;48017;51.064;7.014;2022-09-27T08:51:58;99220.06;;;9.28;100.00
62059;BME280;48017;51.064;7.014;2022-09-27T08:54:29;99217.66;;;9.16;100.00
62059;BME280;48017;51.064;7.014;2022-09-27T08:57:09;99218.50;;;9.17;100.00
62059;BME280;48017;51.064;7.014;2022-09-27T08:59:40;99226.91;;;9.38;100.00
62059;BME280;48017;51.064;7.014;2022-09-27T09:02:16;99222.09;;;9.34;100.00
62059;BME280;48017;51.064;7.014;2022-09-27T09:04:42;99224.69;;;9.51;100.00
62059;BME280;48017;51.064;7.014;2022-09-27T09:13:10;99215.13;;;9.59;100.00
62059;BME280;48017;51.064;7.014;2022-09-27T09:21:57;99213.66;;;9.98;100.00
62059;BME280;48017;51.064;7.014;2022-09-27T09:27:33;99212.81;;;9.98;98.21
62059;BME280;48017;51.064;7.014;2022-09-27T09:38:19;99205.53;;;10.00;96.82
62059;BME280;48017;51.064;7.014;2022-09-27T09:40:48;99205.53;;;10.00;96.85
62059;BME280;48017;51.064;7.014;2022-09-27T09:43:20;99206.91;;;10.04;96.71
62059;BME280;48017;51.064;7.014;2022-09-27T09:46:02;99196.44;;;9.94;97.96
62059;BME280;48017;51.064;7.014;2022-09-27T09:48:46;99195.47;;;10.03;97.09
62059;BME280;48017;51.064;7.014;2022-09-27T09:51:38;99196.91;;;9.90;95.76
62059;BME280;48017;51.064;7.014;2022-09-27T09:54:14;99200.13;;;10.01;95.34
62059;BME280;48017;51.064;7.014;2022-09-27T09:56:48;99202.09;;;10.07;94.54
62059;BME280;48017;51.064;7.014;2022-09-27T10:02:31;99189.34;;;10.11;94.78
62059;BME280;48017;51.064;7.014;2022-09-27T10:04:57;99195.25;;;10.23;93.80
62059;BME280;48017;51.064;7.014;2022-09-27T10:07:22;99192.78;;;10.37;94.21
62059;BME280;48017;51.064;7.014;2022-09-27T10:09:50;99193.97;;;10.43;93.38
62059;BME280;48017;51.064;7.014;2022-09-27T10:12:16;99179.69;;;10.36;92.37
62059;BME280;48017;51.064;7.014;2022-09-27T10:14:45;99192.13;;;10.52;90.73
62059;BME280;48017;51.064;7.014;2022-09-27T10:17:14;99183.34;;;10.51;91.09
62059;BME280;48017;51.064;7.014;2022-09-27T10:19:43;99188.34;;;10.54;92.20
62059;BME280;48017;51.064;7.014;2022-09-27T10:22:21;99189.00;;;10.56;92.07
62059;BME280;48017;51.064;7.014;2022-09-27T10:25:00;99198.44;;;10.43;89.64
62059;BME280;48017;51.064;7.014;2022-09-27T10:27:27;99187.66;;;10.52;91.82
62059;BME280;48017;51.064;7.014;2022-09-27T10:29:59;99181.72;;;10.42;90.72
62059;BME280;48017;51.064;7.014;2022-09-27T10:32:27;99180.53;;;10.36;91.06
62059;BME280;48017;51.064;7.014;2022-09-27T10:35:50;99182.00;;;10.31;90.42
62059;BME280;48017;51.064;7.014;2022-09-27T10:40:41;99181.41;;;10.53;91.08
62059;BME280;48017;51.064;7.014;2022-09-27T10:43:27;99185.66;;;10.38;92.25
62059;BME280;48017;51.064;7.014;2022-09-27T10:46:02;99184.50;;;10.41;91.79
62059;BME280;48017;51.064;7.014;2022-09-27T10:48:28;99181.06;;;10.56;94.18
62059;BME280;48017;51.064;7.014;2022-09-27T10:53:21;99171.13;;;10.42;91.85
62059;BME280;48017;51.064;7.014;2022-09-27T10:55:50;99177.38;;;10.41;91.80
62059;BME280;48017;51.064;7.014;2022-09-27T10:58:35;99171.41;;;10.23;91.93
62059;BME280;48017;51.064;7.014;2022-09-27T11:01:07;99184.06;;;10.11;93.89
62059;BME280;48017;51.064;7.014;2022-09-27T11:03:47;99180.19;;;10.23;96.05
62059;BME280;48017;51.064;7.014;2022-09-27T11:08:49;99176.41;;;9.58;100.00
62059;BME280;48017;51.064;7.014;2022-09-27T11:11:23;99183.75;;;9.64;100.00
62059;BME280;48017;51.064;7.014;2022-09-27T11:14:15;99177.63;;;9.37;100.00
62059;BME280;48017;51.064;7.014;2022-09-27T11:27:50;99183.56;;;9.31;100.00
62059;BME280;48017;51.064;7.014;2022-09-27T11:30:22;99174.97;;;9.37;100.00
62059;BME280;48017;51.064;7.014;2022-09-27T11:33:17;99178.13;;;9.33;100.00
62059;BME280;48017;51.064;7.014;2022-09-27T11:38:30;99171.66;;;9.69;100.00
62059;BME280;48017;51.064;7.014;2022-09-27T11:43:50;99173.63;;;10.01;100.00
62059;BME280;48017;51.064;7.014;2022-09-27T11:48:54;99161.72;;;10.05;100.00
62059;BME280;48017;51.064;7.014;2022-09-27T11:55:00;99154.91;;;10.53;100.00
62059;BME280;48017;51.064;7.014;2022-09-27T11:57:33;99155.19;;;10.91;100.00
62059;BME280;48017;51.064;7.014;2022-09-27T12:02:50;99164.16;;;10.98;98.57
62059;BME280;48017;51.064;7.014;2022-09-27T12:13:44;99153.22;;;10.68;100.00
62059;BME280;48017;51.064;7.014;2022-09-27T12:16:12;99147.59;;;10.47;99.98
62059;BME280;48017;51.064;7.014;2022-09-27T12:18:40;99143.47;;;10.45;99.25
62059;BME280;48017;51.064;7.014;2022-09-27T12:21:08;99143.47;;;10.45;100.00
62059;BME280;48017;51.064;7.014;2022-09-27T12:23:48;99142.63;;;10.44;99.19
62059;BME280;48017;51.064;7.014;2022-09-27T12:26:24;99136.50;;;10.68;98.20
62059;BME280;48017;51.064;7.014;2022-09-27T12:31:42;99139.59;;;11.12;94.72
62059;BME280;48017;51.064;7.014;2022-09-27T12:36:44;99130.34;;;10.92;95.33
62059;BME280;48017;51.064;7.014;2022-09-27T12:41:57;99136.66;;;10.91;92.36
62059;BME280;48017;51.064;7.014;2022-09-27T12:44:36;99132.50;;;10.80;92.37
62059;BME280;48017;51.064;7.014;2022-09-27T12:52:32;99137.00;;;10.47;94.70
62059;BME280;48017;51.064;7.014;2022-09-27T12:55:17;99136.66;;;10.58;96.25
62059;BME280;48017;51.064;7.014;2022-09-27T13:00:57;99179.94;;;10.17;100.00
62059;BME280;48017;51.064;7.014;2022-09-27T13:11:21;99173.59;;;9.51;100.00
62059;BME280;48017;51.064;7.014;2022-09-27T13:13:53;99171.63;;;9.53;100.00
62059;BME280;48017;51.064;7.014;2022-09-27T13:16:19;99171.06;;;9.49;100.00
62059;BME280;48017;51.064;7.014;2022-09-27T13:26:53;99172.28;;;9.55;100.00
62059;BME280;48017;51.064;7.014;2022-09-27T13:29:23;99177.78;;;9.70;100.00
62059;BME280;48017;51.064;7.014;2022-09-27T13:45:23;99163.81;;;9.86;100.00
62059;BME280;48017;51.064;7.014;2022-09-27T13:47:53;99165.13;;;9.81;100.00
62059;BME280;48017;51.064;7.014;2022-09-27T13:53:29;99164.22;;;9.65;100.00
62059;BME280;48017;51.064;7.014;2022-09-27T13:55:56;99158.00;;;9.82;100.00
62059;BME280;48017;51.064;7.014;2022-09-27T13:58:50;99164.31;;;9.89;100.00
62059;BME280;48017;51.064;7.014;2022-09-27T14:04:17;99152.28;;;10.03;100.00
62059;BME280;48017;51.064;7.014;2022-09-27T14:06:47;99152.97;;;10.21;100.00
62059;BME280;48017;51.064;7.014;2022-09-27T14:09:18;99147.56;;;10.23;100.00
62059;BME280;48017;51.064;7.014;2022-09-27T14:11:49;99157.81;;;10.26;100.00
62059;BME280;48017;51.064;7.014;2022-09-27T14:14:21;99163.31;;;10.41;100.00
62059;BME280;48017;51.064;7.014;2022-09-27T14:16:47;99155.00;;;10.27;100.00
62059;BME280;48017;51.064;7.014;2022-09-27T14:19:19;99157.28;;;10.14;99.06
62059;BME280;48017;51.064;7.014;2022-09-27T14:21:46;99167.44;;;10.35;100.00
62059;BME280;48017;51.064;7.014;2022-09-27T14:24:25;99163.16;;;10.42;99.68
62059;BME280;48017;51.064;7.014;2022-09-27T14:27:09;99164.00;;;10.43;99.33
62059;BME280;48017;51.064;7.014;2022-09-27T14:29:41;99161.47;;;10.41;95.05
62059;BME280;48017;51.064;7.014;2022-09-27T14:32:12;99164.00;;;10.43;96.43
62059;BME280;48017;51.064;7.014;2022-09-27T14:34:38;99162.34;;;10.58;95.90
62059;BME280;48017;51.064;7.014;2022-09-27T14:37:04;99157.53;;;10.61;94.01
62059;BME280;48017;51.064;7.014;2022-09-27T14:40:03;99155.88;;;10.44;94.83
62059;BME280;48017;51.064;7.014;2022-09-27T14:42:35;99164.16;;;10.49;94.58
62059;BME280;48017;51.064;7.014;2022-09-27T14:48:00;99171.78;;;10.44;94.66
62059;BME280;48017;51.064;7.014;2022-09-27T14:50:28;99178.06;;;10.59;96.20
62059;BME280;48017;51.064;7.014;2022-09-27T14:52:55;99172.09;;;10.57;95.75
62059;BME280;48017;51.064;7.014;2022-09-27T14:55:26;99180.06;;;10.65;91.88
62059;BME280;48017;51.064;7.014;2022-09-27T14:58:01;99186.69;;;10.53;93.00
62059;BME280;48017;51.064;7.014;2022-09-27T15:00:31;99189.63;;;10.26;95.13
62059;BME280;48017;51.064;7.014;2022-09-27T15:03:00;99190.63;;;10.33;95.51
62059;BME280;48017;51.064;7.014;2022-09-27T15:05:29;99193.28;;;10.33;95.23
62059;BME280;48017;51.064;7.014;2022-09-27T15:07:57;99190.94;;;10.30;96.00
62059;BME280;48017;51.064;7.014;2022-09-27T15:10:25;99194.59;;;10.29;96.02
62059;BME280;48017;51.064;7.014;2022-09-27T15:12:54;99201.38;;;10.31;93.97
62059;BME280;48017;51.064;7.014;2022-09-27T15:15:24;99201.53;;;10.30;93.86
62059;BME280;48017;51.064;7.014;2022-09-27T15:17:51;99200.38;;;10.24;94.62
62059;BME280;48017;51.064;7.014;2022-09-27T15:20:21;99203.47;;;10.20;92.79
62059;BME280;48017;51.064;7.014;2022-09-27T15:22:49;99204.09;;;10.05;92.87
62059;BME280;48017;51.064;7.014;2022-09-27T15:27:47;99196.50;;;10.19;92.86
62059;BME280;48017;51.064;7.014;2022-09-27T15:30:28;99193.66;;;10.04;92.94
62059;BME280;48017;51.064;7.014;2022-09-27T15:32:57;99189.03;;;10.06;92.63
62059;BME280;48017;51.064;7.014;2022-09-27T15:35:25;99193.16;;;10.08;93.65
62059;BME280;48017;51.064;7.014;2022-09-27T15:37:51;99200.94;;;10.02;95.32
62059;BME280;48017;51.064;7.014;2022-09-27T15:43:42;99190.16;;;9.95;94.97
62059;BME280;48017;51.064;7.014;2022-09-27T15:51:42;99186.50;;;9.96;96.46
62059;BME280;48017;51.064;7.014;2022-09-27T15:54:08;99178.06;;;9.93;97.29
62059;BME280;48017;51.064;7.014;2022-09-27T15:56:33;99184.34;;;10.00;98.79
62059;BME280;48017;51.064;7.014;2022-09-27T15:58:59;99189.66;;;10.00;98.40
62059;BME280;48017;51.064;7.014;2022-09-27T16:01:25;99182.84;;;9.89;97.08
62059;BME280;48017;51.064;7.014;2022-09-27T16:03:50;99188.47;;;9.86;96.28
62059;BME280;48017;51.064;7.014;2022-09-27T16:06:16;99182.16;;;9.87;96.16
62059;BME280;48017;51.064;7.014;2022-09-27T16:08:42;99185.16;;;9.84;93.76
62059;BME280;48017;51.064;7.014;2022-09-27T16:11:12;99179.19;;;9.82;94.43
62059;BME280;48017;51.064;7.014;2022-09-27T16:13:38;99189.25;;;9.78;93.81
62059;BME280;48017;51.064;7.014;2022-09-27T16:16:04;99180.81;;;9.75;93.21
62059;BME280;48017;51.064;7.014;2022-09-27T16:18:29;99171.03;;;9.75;92.21
62059;BME280;48017;51.064;7.014;2022-09-27T16:20:56;99177.13;;;9.68;91.12
62059;BME280;48017;51.064;7.014;2022-09-27T16:23:22;99177.63;;;9.63;90.79
62059;BME280;48017;51.064;7.014;2022-09-27T16:25:47;99175.44;;;9.59;90.70
62059;BME280;48017;51.064;7.014;2022-09-27T16:28:12;99179.72;;;9.60;91.31
62059;BME280;48017;51.064;7.014;2022-09-27T16:30:38;99181.53;;;9.59;92.21
62059;BME280;48017;51.064;7.014;2022-09-27T16:33:03;99186.34;;;9.56;92.09